Time;durP1;ratioP1;P1;durP2;ratioP2;P2;SDS_P1;SDS_P2;PMS_P1;PMS_P2;Temp;Humidity;BMP_temperature;BMP_pressure;BME280_temperature;BME280_humidity;BME280_pressure;Samples;Min_cycle;Max_cycle;Signal;HPM_P1;HPM_P2
2023/03/14 00:01:18;;;;;;;10.20;6.40;;;;;;;1.33;73.35;95335.67;106588;1276;22535;-64
2023/03/14 00:03:46;;;;;;;12.50;7.20;;;;;;;1.28;72.91;95335.27;106780;1276;24262;-64
2023/03/14 00:06:15;;;;;;;14.10;7.10;;;;;;;1.22;73.76;95333.10;106832;1276;22626;-64
2023/03/14 00:08:44;;;;;;;9.40;5.00;;;;;;;1.13;73.61;95334.55;106555;1276;24454;-64
2023/03/14 00:11:16;;;;;;;6.50;4.10;;;;;;;1.06;74.11;95334.65;106679;1276;22596;-64
2023/03/14 00:13:47;;;;;;;8.60;5.50;;;;;;;1.01;73.70;95331.45;106642;1276;25929;-64
2023/03/14 00:16:16;;;;;;;8.70;5.00;;;;;;;0.99;73.82;95331.77;106719;1276;25229;-64
2023/03/14 00:18:44;;;;;;;6.80;4.20;;;;;;;0.98;74.67;95323.79;106665;1276;25331;-63
2023/03/14 00:21:13;;;;;;;8.10;4.00;;;;;;;0.96;74.28;95324.10;106576;1276;22525;-63
2023/03/14 00:23:42;;;;;;;9.20;3.90;;;;;;;0.96;74.42;95321.67;106537;1276;22524;-64
2023/03/14 00:26:16;;;;;;;7.70;4.70;;;;;;;0.97;74.93;95320.31;106632;1276;23884;-64
2023/03/14 00:28:45;;;;;;;6.50;4.20;;;;;;;0.97;75.09;95312.36;106583;1276;25355;-63
2023/03/14 00:31:15;;;;;;;6.80;4.20;;;;;;;1.01;74.97;95312.05;106621;1276;25329;-64
2023/03/14 00:33:45;;;;;;;6.90;4.10;;;;;;;1.02;75.10;95303.05;106621;1276;25262;-64
2023/03/14 00:36:15;;;;;;;7.30;4.40;;;;;;;1.02;74.89;95298.03;106675;1276;25320;-64
2023/03/14 00:38:46;;;;;;;6.70;3.70;;;;;;;1.01;75.05;95295.77;106540;1276;22533;-64
2023/03/14 00:41:18;;;;;;;7.90;4.50;;;;;;;1.00;75.17;95294.20;106716;1276;22646;-64
2023/03/14 00:43:46;;;;;;;7.80;5.20;;;;;;;1.03;75.44;95291.99;106785;1276;22536;-64
2023/03/14 00:46:14;;;;;;;9.00;5.30;;;;;;;1.06;75.44;95294.28;106888;1276;22855;-63
2023/03/14 00:48:45;;;;;;;8.70;4.40;;;;;;;1.02;74.47;95293.52;106694;1263;24269;-64
2023/03/14 00:51:15;;;;;;;76.00;39.70;;;;;;;0.96;74.55;95293.96;106577;1276;24254;-64
2023/03/14 00:53:45;;;;;;;11.50;6.80;;;;;;;0.93;74.92;95292.71;106612;1276;23008;-64
2023/03/14 00:56:13;;;;;;;8.10;4.70;;;;;;;0.90;74.69;95286.27;106544;1276;22530;-64
2023/03/14 00:58:42;;;;;;;8.50;5.00;;;;;;;0.85;74.76;95290.72;106646;1276;22643;-64
2023/03/14 01:01:17;;;;;;;34.70;14.60;;;;;;;0.84;74.60;95283.77;106898;1276;22514;-64
2023/03/14 01:03:46;;;;;;;15.00;7.10;;;;;;;0.81;74.53;95287.38;106675;1276;22530;-63
2023/03/14 01:06:22;;;;;;;18.20;9.50;;;;;;;0.74;74.80;95277.92;106616;1276;25228;-64
2023/03/14 01:08:51;;;;;;;33.90;14.50;;;;;;;0.69;74.50;95284.25;106584;1276;24228;-64
2023/03/14 01:11:33;;;;;;;30.10;12.60;;;;;;;0.66;74.95;95274.85;106577;1276;22652;-63
2023/03/14 01:14:03;;;;;;;9.60;5.00;;;;;;;0.62;74.77;95278.45;106675;1272;24241;-63
2023/03/14 01:16:34;;;;;;;26.60;10.20;;;;;;;0.57;75.73;95270.58;106690;1276;25393;-64
2023/03/14 01:19:03;;;;;;;8.10;4.90;;;;;;;0.50;75.55;95275.83;106576;1276;22648;-64
2023/03/14 01:21:33;;;;;;;8.30;4.30;;;;;;;0.45;75.67;95271.78;106603;1276;24200;-63
2023/03/14 01:24:04;;;;;;;5.90;3.10;;;;;;;0.38;76.36;95263.89;106776;1276;22786;-64
2023/03/14 01:26:34;;;;;;;6.00;3.40;;;;;;;0.31;76.94;95262.92;106615;1276;22514;-64
2023/03/14 01:29:03;;;;;;;5.40;3.20;;;;;;;0.27;76.22;95256.63;106604;1276;25354;-63
2023/03/14 01:31:33;;;;;;;7.60;3.90;;;;;;;0.27;76.78;95250.91;106876;1276;24368;-64
2023/03/14 01:34:01;;;;;;;4.00;2.80;;;;;;;0.24;76.98;95248.80;106586;1276;24244;-64
2023/03/14 01:36:30;;;;;;;9.00;4.80;;;;;;;0.19;76.62;95243.52;106559;1276;25296;-63
2023/03/14 01:39:00;;;;;;;4.50;2.80;;;;;;;0.13;76.97;95248.12;106582;1276;25393;-64
2023/03/14 01:41:29;;;;;;;4.00;2.70;;;;;;;0.11;77.78;95243.05;106584;1276;24228;-64
2023/03/14 01:43:58;;;;;;;8.10;3.80;;;;;;;0.06;77.56;95242.30;106656;1276;24222;-64
2023/03/14 01:46:37;;;;;;;4.30;2.60;;;;;;;0.04;77.48;95243.48;106541;1276;22541;-63
2023/03/14 01:49:16;;;;;;;4.50;2.70;;;;;;;0.03;76.81;95242.94;106788;1276;24047;-63
2023/03/14 01:51:48;;;;;;;6.60;3.70;;;;;;;0.07;76.60;95240.24;106876;1276;25319;-64
2023/03/14 01:54:24;;;;;;;3.30;2.40;;;;;;;0.11;77.22;95244.11;106804;1254;22522;-63
2023/03/14 01:57:17;;;;;;;124.70;41.50;;;;;;;0.13;77.09;95236.01;106600;1276;22609;-64
2023/03/14 01:59:54;;;;;;;33.40;11.30;;;;;;;0.14;77.35;95240.52;106582;1276;24220;-64
2023/03/14 02:02:24;;;;;;;36.10;13.60;;;;;;;0.13;77.30;95245.19;106567;1272;24360;-63
2023/03/14 02:04:54;;;;;;;256.70;82.00;;;;;;;0.16;77.71;95240.73;106633;1276;25316;-64
2023/03/14 02:07:40;;;;;;;5.70;3.00;;;;;;;0.18;77.42;95231.59;106557;1276;24206;-64
2023/03/14 02:10:18;;;;;;;7.60;4.80;;;;;;;0.22;77.44;95231.13;106583;1276;22521;-63
2023/03/14 02:12:48;;;;;;;2.90;1.90;;;;;;;0.26;77.75;95222.55;106770;1276;22480;-63
2023/03/14 02:15:33;;;;;;;9.70;5.30;;;;;;;0.27;77.45;95218.56;106486;1276;25598;-64
2023/03/14 02:18:07;;;;;;;67.80;32.90;;;;;;;0.27;77.37;95217.19;106797;1256;22523;-63
2023/03/14 02:21:48;;;;;;;4.70;2.40;;;;;;;0.33;77.63;95217.11;106355;1276;22567;-64
2023/03/14 02:24:23;;;;;;;2.60;1.30;;;;;;;0.32;77.47;95211.39;106618;1276;22521;-63
2023/03/14 02:27:11;;;;;;;2.10;1.20;;;;;;;0.36;77.39;95209.89;106587;1276;25236;-64
2023/03/14 02:30:05;;;;;;;2.40;1.50;;;;;;;0.45;77.87;95207.42;106870;1276;22524;-64
2023/03/14 02:32:39;;;;;;;10.10;5.60;;;;;;;0.44;77.54;95204.80;106809;1276;24401;-63
2023/03/14 02:35:09;;;;;;;;;;;;;;;0.38;77.29;95202.14;106807;1276;22487;-63
2023/03/14 02:37:53;;;;;;;5.50;3.40;;;;;;;0.37;77.21;95206.29;106728;1276;22513;-63
2023/03/14 02:40:22;;;;;;;2.30;1.30;;;;;;;0.42;77.01;95203.74;106902;1262;25214;-63
2023/03/14 02:42:52;;;;;;;2.20;1.50;;;;;;;0.43;76.79;95200.13;106706;1276;25268;-64
2023/03/14 02:45:20;;;;;;;1.90;1.10;;;;;;;0.39;76.47;95195.58;106671;1276;22523;-64
2023/03/14 02:47:54;;;;;;;1.40;1.00;;;;;;;0.36;76.66;95201.40;106560;1276;25456;-63
2023/03/14 02:50:29;;;;;;;3.60;1.90;;;;;;;0.28;77.56;95200.95;106585;1276;25261;-63
2023/03/14 02:52:57;;;;;;;2.10;1.00;;;;;;;0.20;77.57;95199.44;106757;1276;22789;-63
2023/03/14 02:55:26;;;;;;;1.40;1.10;;;;;;;0.14;77.59;95191.58;106632;1276;25389;-63
2023/03/14 02:57:57;;;;;;;7.80;4.30;;;;;;;0.08;77.21;95198.41;106543;1276;24244;-64
2023/03/14 03:00:25;;;;;;;2.80;1.70;;;;;;;0.06;77.43;95199.41;106545;1276;25281;-63
2023/03/14 03:02:53;;;;;;;2.30;1.30;;;;;;;0.03;77.47;95204.04;106604;1276;25173;-63
2023/03/14 03:05:21;;;;;;;3.20;1.30;;;;;;;-0.00;77.70;95195.35;106647;1276;22665;-64
2023/03/14 03:07:50;;;;;;;4.10;0.80;;;;;;;0.01;77.56;95197.61;106793;1276;22598;-63
2023/03/14 03:10:19;;;;;;;2.50;1.10;;;;;;;0.02;77.09;95202.63;106668;1276;23887;-63
2023/03/14 03:12:47;;;;;;;1.10;0.70;;;;;;;0.01;77.14;95199.52;106748;1276;22509;-64
2023/03/14 03:15:16;;;;;;;1.40;1.00;;;;;;;-0.02;77.75;95188.05;106467;1276;23877;-63
2023/03/14 03:17:44;;;;;;;1.60;0.80;;;;;;;-0.03;77.30;95191.30;106611;1276;24253;-63
2023/03/14 03:20:13;;;;;;;0.90;0.80;;;;;;;-0.04;77.21;95189.75;106735;1276;22850;-63
2023/03/14 03:22:41;;;;;;;2.40;1.50;;;;;;;-0.05;77.98;95183.52;106727;1276;25198;-63
2023/03/14 03:25:10;;;;;;;2.70;0.80;;;;;;;-0.06;78.67;95182.28;106595;1276;22517;-64
2023/03/14 03:27:38;;;;;;;1.20;0.80;;;;;;;-0.16;78.40;95184.20;106582;1276;22509;-65
2023/03/14 03:30:08;;;;;;;2.90;1.00;;;;;;;-0.21;78.92;95181.88;106754;1276;25385;-64
2023/03/14 03:32:36;;;;;;;1.70;1.20;;;;;;;-0.21;78.98;95184.13;106787;1276;25253;-64
2023/03/14 03:35:07;;;;;;;3.00;1.20;;;;;;;-0.21;78.82;95181.17;106841;1276;22529;-63
2023/03/14 03:37:37;;;;;;;1.20;0.80;;;;;;;-0.18;78.77;95182.79;106634;1276;22530;-64
2023/03/14 03:40:07;;;;;;;1.50;1.10;;;;;;;-0.14;78.60;95181.80;106531;1276;22858;-63
2023/03/14 03:42:36;;;;;;;1.60;1.10;;;;;;;-0.10;78.64;95180.14;106618;1276;25300;-63
2023/03/14 03:45:07;;;;;;;3.80;1.90;;;;;;;-0.09;79.21;95173.77;106575;1263;24212;-63
2023/03/14 03:47:37;;;;;;;1.40;0.90;;;;;;;-0.09;79.11;95174.28;106595;1276;22530;-63
2023/03/14 03:50:06;;;;;;;1.90;0.80;;;;;;;-0.08;79.15;95176.20;106768;1276;22516;-63
2023/03/14 03:52:34;;;;;;;1.20;0.80;;;;;;;-0.04;79.37;95163.48;106809;1276;22516;-63
2023/03/14 03:55:03;;;;;;;1.80;1.30;;;;;;;-0.06;79.04;95162.05;106749;1276;25414;-63
2023/03/14 03:57:31;;;;;;;8.80;4.00;;;;;;;-0.03;79.11;95161.91;106612;1276;22655;-63
2023/03/14 04:00:00;;;;;;;8.40;3.60;;;;;;;-0.02;78.98;95156.75;106582;1276;24398;-63
2023/03/14 04:02:29;;;;;;;1.70;1.20;;;;;;;-0.06;78.68;95157.21;106701;1263;25311;-63
2023/03/14 04:04:58;;;;;;;1.10;0.80;;;;;;;-0.03;79.04;95152.25;106505;1276;22540;-63
2023/03/14 04:07:26;;;;;;;2.40;1.30;;;;;;;-0.02;78.77;95151.92;106598;1276;22629;-64
2023/03/14 04:09:55;;;;;;;3.30;1.80;;;;;;;0.02;79.21;95151.11;106569;1276;22640;-63
2023/03/14 04:12:33;;;;;;;2.60;1.20;;;;;;;-0.00;78.66;95147.61;106874;1276;25393;-63
2023/03/14 04:15:08;;;;;;;2.80;1.10;;;;;;;-0.03;78.72;95146.02;106859;1276;22571;-64
2023/03/14 04:17:38;;;;;;;3.00;1.20;;;;;;;-0.00;78.96;95148.31;106809;1276;25496;-64
2023/03/14 04:20:10;;;;;;;7.80;3.70;;;;;;;-0.07;79.06;95141.64;106790;1276;22653;-63
2023/03/14 04:22:40;;;;;;;37.20;16.50;;;;;;;-0.17;78.64;95143.57;106788;1276;22507;-64
2023/03/14 04:25:11;;;;;;;12.50;6.30;;;;;;;-0.23;78.51;95149.00;106751;1276;24081;-64
2023/03/14 04:27:48;;;;;;;5.00;2.70;;;;;;;-0.26;78.58;95142.55;106915;1276;22759;-63
2023/03/14 04:30:23;;;;;;;29.20;15.20;;;;;;;-0.28;79.22;95139.25;106678;1276;24260;-63
2023/03/14 04:32:58;;;;;;;7.20;4.10;;;;;;;-0.36;79.22;95142.92;106652;1276;22507;-63
2023/03/14 04:35:31;;;;;;;25.40;15.00;;;;;;;-0.41;79.46;95130.58;106637;1276;25683;-64
2023/03/14 04:38:04;;;;;;;9.80;5.10;;;;;;;-0.42;79.47;95131.40;106602;1276;25614;-63
2023/03/14 04:40:33;;;;;;;4.10;2.20;;;;;;;-0.41;79.39;95140.77;106613;1276;22521;-64
2023/03/14 04:43:05;;;;;;;4.40;2.00;;;;;;;-0.40;78.90;95140.77;106586;1276;24239;-63
2023/03/14 04:45:34;;;;;;;7.20;3.10;;;;;;;-0.41;78.94;95129.52;106624;1276;22519;-63
2023/03/14 04:48:05;;;;;;;28.00;10.80;;;;;;;-0.50;78.99;95130.09;106545;1276;25604;-63
2023/03/14 04:50:33;;;;;;;4.80;2.10;;;;;;;-0.52;79.58;95123.14;106544;1276;24199;-63
2023/03/14 04:53:02;;;;;;;4.20;1.90;;;;;;;-0.53;79.47;95125.04;106656;1276;22926;-63
2023/03/14 04:55:32;;;;;;;2.30;1.30;;;;;;;-0.50;79.41;95118.67;106546;1276;24253;-63
2023/03/14 04:58:00;;;;;;;4.20;2.20;;;;;;;-0.43;79.45;95125.02;106593;1276;23147;-63
2023/03/14 05:00:29;;;;;;;63.80;30.40;;;;;;;-0.37;79.95;95119.05;106568;1276;22870;-64
2023/03/14 05:03:37;;;;;;;4.40;2.60;;;;;;;-0.33;79.64;95121.19;106559;1276;22513;-64
2023/03/14 05:06:21;;;;;;;3.90;2.50;;;;;;;-0.27;79.72;95118.52;106597;1276;23874;-64
2023/03/14 05:09:27;;;;;;;10.60;4.90;;;;;;;-0.17;79.75;95115.05;106109;1282;22638;-64
2023/03/14 05:12:11;;;;;;;4.70;2.50;;;;;;;-0.10;79.62;95103.72;106127;1282;22562;-63
2023/03/14 05:15:01;;;;;;;29.30;12.70;;;;;;;-0.02;79.67;95102.11;106388;1276;22654;-62
2023/03/14 05:18:08;;;;;;;67.50;29.70;;;;;;;0.13;80.06;95091.77;106138;1281;22703;-62
2023/03/14 05:20:51;;;;;;;78.10;38.90;;;;;;;0.30;80.29;95087.66;105987;1282;22516;-62
2023/03/14 05:23:39;;;;;;;77.70;39.20;;;;;;;0.34;79.59;95079.07;106254;1276;25399;-62
2023/03/14 05:26:19;;;;;;;50.10;28.80;;;;;;;0.37;79.98;95078.77;106589;1276;22640;-63
2023/03/14 05:29:00;;;;;;;59.20;35.60;;;;;;;0.47;79.94;95072.48;106556;1276;24252;-62
2023/03/14 05:31:35;;;;;;;57.10;32.50;;;;;;;0.59;79.78;95076.24;106611;1276;22517;-62
2023/03/14 05:34:21;;;;;;;42.40;23.40;;;;;;;0.62;79.19;95074.91;106608;1276;22652;-62
2023/03/14 05:37:15;;;;;;;37.80;23.70;;;;;;;0.69;79.27;95072.03;106445;1276;25326;-62
2023/03/14 05:40:11;;;;;;;46.80;28.70;;;;;;;0.70;78.82;95067.02;106660;1276;22499;-62
2023/03/14 05:42:59;;;;;;;41.60;23.70;;;;;;;0.72;79.12;95061.85;106575;1276;22514;-63
2023/03/14 05:45:39;;;;;;;49.00;25.80;;;;;;;0.73;79.35;95071.39;106539;1276;24204;-63
2023/03/14 05:48:26;;;;;;;31.10;18.40;;;;;;;0.77;79.39;95063.29;106594;1276;22520;-64
2023/03/14 05:51:13;;;;;;;27.60;12.60;;;;;;;0.81;79.17;95057.27;106715;1276;22520;-63
2023/03/14 05:54:00;;;;;;;10.10;4.20;;;;;;;0.88;78.90;95060.28;106667;1276;22527;-63
2023/03/14 05:56:52;;;;;;;13.30;6.20;;;;;;;0.90;79.41;95055.10;106537;1276;25723;-63
2023/03/14 05:59:36;;;;;;;13.40;7.20;;;;;;;0.90;79.42;95049.91;106574;1276;25525;-63
2023/03/14 06:02:10;;;;;;;6.70;3.30;;;;;;;0.93;79.21;95050.79;106716;1276;22515;-63
2023/03/14 06:04:46;;;;;;;10.20;4.50;;;;;;;1.04;79.27;95044.84;106729;1260;25200;-63
2023/03/14 06:07:14;;;;;;;22.90;12.60;;;;;;;1.12;79.41;95042.15;106537;1276;24420;-64
2023/03/14 06:09:43;;;;;;;71.80;35.50;;;;;;;1.15;79.20;95047.20;106642;1276;24355;-67
2023/03/14 06:12:11;;;;;;;129.10;63.00;;;;;;;1.22;79.10;95036.17;106593;1276;22519;-65
2023/03/14 06:14:42;;;;;;;43.20;22.70;;;;;;;1.33;79.10;95028.80;106519;1276;24040;-64
2023/03/14 06:17:11;;;;;;;27.50;16.60;;;;;;;1.46;78.96;95029.59;106607;1276;22571;-64
2023/03/14 06:19:46;;;;;;;14.20;6.80;;;;;;;1.63;78.57;95023.64;106620;1276;22794;-65
2023/03/14 06:22:15;;;;;;;13.90;6.70;;;;;;;1.85;78.14;95022.56;106613;1276;22590;-64
2023/03/14 06:24:44;;;;;;;7.00;4.10;;;;;;;2.06;76.29;95019.55;106651;1276;22972;-65
2023/03/14 06:27:12;;;;;;;14.40;7.80;;;;;;;2.31;76.68;95013.58;106596;1276;22518;-63
2023/03/14 06:29:41;;;;;;;13.10;8.40;;;;;;;2.57;76.06;95013.16;106552;1276;25262;-64
2023/03/14 06:32:09;;;;;;;20.10;11.60;;;;;;;2.81;73.24;95015.29;106511;1270;26058;-64
2023/03/14 06:34:38;;;;;;;13.80;8.10;;;;;;;3.10;69.18;95006.30;106463;1263;25504;-66
2023/03/14 06:37:07;;;;;;;11.10;7.50;;;;;;;3.38;68.48;95003.52;106781;1270;23122;-64
2023/03/14 06:39:35;;;;;;;19.60;11.40;;;;;;;3.67;66.57;95008.88;106641;1272;22559;-65
2023/03/14 06:42:08;;;;;;;20.90;11.30;;;;;;;3.93;65.10;94999.42;106679;1270;24253;-64
2023/03/14 06:44:37;;;;;;;17.40;10.20;;;;;;;4.16;64.30;94999.35;106789;1276;25453;-64
2023/03/14 06:47:05;;;;;;;25.00;12.10;;;;;;;4.36;64.13;94986.92;106615;1276;22543;-64
2023/03/14 06:49:34;;;;;;;20.90;10.10;;;;;;;4.61;63.75;94991.33;106543;1276;23976;-65
2023/03/14 06:52:02;;;;;;;18.40;10.50;;;;;;;4.86;63.78;94986.48;106563;1276;24190;-64
2023/03/14 06:54:31;;;;;;;17.00;9.70;;;;;;;5.05;63.02;94984.61;106608;1276;24349;-64
2023/03/14 06:56:59;;;;;;;13.10;8.20;;;;;;;5.22;63.08;94983.44;106583;1276;22532;-64
2023/03/14 06:59:27;;;;;;;13.40;7.40;;;;;;;5.36;63.07;94982.45;106536;1276;25534;-64
2023/03/14 07:01:55;;;;;;;13.00;7.90;;;;;;;5.42;61.08;94971.59;106579;1276;25262;-64
2023/03/14 07:04:24;;;;;;;12.60;8.20;;;;;;;5.45;60.84;94961.09;106556;1276;24376;-64
2023/03/14 07:06:52;;;;;;;15.90;9.20;;;;;;;5.44;59.40;94968.27;106520;1276;22524;-64
2023/03/14 07:09:20;;;;;;;20.00;11.40;;;;;;;5.39;59.15;94961.85;106629;1276;24259;-64
2023/03/14 07:11:53;;;;;;;16.40;10.80;;;;;;;5.39;59.53;94965.51;106540;1270;22678;-64
2023/03/14 07:14:23;;;;;;;18.70;11.60;;;;;;;5.38;58.81;94977.04;106715;1276;22658;-64
2023/03/14 07:16:51;;;;;;;14.10;8.20;;;;;;;5.42;59.79;94977.52;106763;1276;22513;-64
2023/03/14 07:19:20;;;;;;;18.10;8.70;;;;;;;5.43;58.14;94975.93;106587;1276;24256;-64
2023/03/14 07:21:48;;;;;;;15.30;8.60;;;;;;;5.44;58.36;94975.92;106196;1277;25162;-67
2023/03/14 07:24:21;;;;;;;31.40;14.80;;;;;;;5.47;59.31;94980.44;106359;1267;22525;-64
2023/03/14 07:26:49;;;;;;;42.10;20.40;;;;;;;5.51;59.17;94971.67;106627;1277;24246;-66
2023/03/14 07:29:18;;;;;;;24.40;15.40;;;;;;;5.54;58.70;94968.69;106365;1277;24205;-68
2023/03/14 07:31:47;;;;;;;18.30;10.70;;;;;;;5.56;58.43;94969.90;106760;1277;22523;-66
2023/03/14 07:34:19;;;;;;;15.20;10.00;;;;;;;5.61;58.75;94973.68;106577;1277;24464;-65
2023/03/14 07:36:47;;;;;;;11.60;7.30;;;;;;;5.64;58.39;94974.88;106548;1277;22652;-67
2023/03/14 07:39:16;;;;;;;17.30;8.90;;;;;;;5.63;57.91;94970.88;106399;1277;24377;-65
2023/03/14 07:41:59;;;;;;;13.60;8.10;;;;;;;5.68;57.80;94970.67;106527;1277;22517;-65
2023/03/14 07:44:30;;;;;;;22.60;13.40;;;;;;;5.72;57.98;94963.81;106419;1272;22513;-66
2023/03/14 07:46:58;;;;;;;20.90;10.30;;;;;;;5.79;57.84;94973.16;106788;1276;24377;-65
2023/03/14 07:49:27;;;;;;;23.30;10.70;;;;;;;5.82;57.06;94966.66;106629;1276;24351;-65
2023/03/14 07:51:55;;;;;;;31.20;15.20;;;;;;;5.91;57.83;94959.26;106735;1276;22511;-68
2023/03/14 07:54:24;;;;;;;26.90;13.50;;;;;;;5.92;57.14;94958.54;106369;1276;24234;-64
2023/03/14 07:56:52;;;;;;;17.40;9.70;;;;;;;5.96;57.60;94953.11;106610;1276;25396;-66
2023/03/14 07:59:21;;;;;;;23.40;11.90;;;;;;;6.01;57.30;94947.11;106591;1276;22529;-67
2023/03/14 08:01:49;;;;;;;32.00;15.50;;;;;;;6.05;57.48;94947.26;106819;1276;25539;-67
2023/03/14 08:04:17;;;;;;;21.00;11.60;;;;;;;6.11;57.06;94947.71;106780;1276;22776;-67
2023/03/14 08:06:45;;;;;;;13.60;8.10;;;;;;;6.20;57.86;94944.45;106634;1276;22524;-69
2023/03/14 08:09:15;;;;;;;12.50;6.90;;;;;;;6.32;58.24;94942.73;106618;1276;24225;-71
2023/03/14 08:11:43;;;;;;;12.70;6.70;;;;;;;6.41;57.09;94947.70;106549;1269;25613;-66
2023/03/14 08:14:12;;;;;;;14.70;7.20;;;;;;;6.49;57.64;94934.83;106546;1276;24235;-68
2023/03/14 08:16:40;;;;;;;12.10;7.90;;;;;;;6.55;57.39;94932.32;106526;1276;24289;-70
2023/03/14 08:19:08;;;;;;;18.70;11.20;;;;;;;6.62;57.48;94937.63;106604;1276;23143;-69
2023/03/14 08:21:37;;;;;;;19.10;9.70;;;;;;;6.69;57.19;94932.45;106574;1276;22798;-69
2023/03/14 08:24:05;;;;;;;11.20;6.90;;;;;;;6.77;57.04;94919.77;106572;1276;24278;-68
2023/03/14 08:26:34;;;;;;;16.00;9.00;;;;;;;6.88;57.67;94924.84;106641;1276;22563;-68
2023/03/14 08:29:04;;;;;;;16.80;9.10;;;;;;;6.93;56.38;94930.17;106556;1276;22516;-73
2023/03/14 08:31:33;;;;;;;18.30;9.90;;;;;;;7.05;56.55;94922.48;106586;1276;25262;-70
2023/03/14 08:34:03;;;;;;;24.90;11.50;;;;;;;7.16;55.80;94917.07;106364;1276;22639;-75
2023/03/14 08:36:31;;;;;;;29.60;13.40;;;;;;;7.27;55.11;94916.53;106899;1276;22676;-72
2023/03/14 08:38:59;;;;;;;34.90;13.50;;;;;;;7.44;56.00;94915.02;106854;1276;25383;-72
2023/03/14 08:41:28;;;;;;;30.40;14.00;;;;;;;7.62;56.08;94916.96;106635;1276;22520;-69
2023/03/14 08:43:56;;;;;;;29.90;14.10;;;;;;;7.73;54.79;94904.67;106518;1276;22636;-71
2023/03/14 08:46:24;;;;;;;38.60;15.20;;;;;;;7.81;55.20;94898.41;106532;1273;22524;-68
2023/03/14 08:48:53;;;;;;;30.70;15.20;;;;;;;7.88;55.11;94901.96;106605;1272;22512;-71
2023/03/14 08:51:21;;;;;;;19.60;10.90;;;;;;;7.97;55.68;94894.77;106815;1270;22631;-69
2023/03/14 08:53:50;;;;;;;14.30;9.40;;;;;;;8.06;55.98;94898.46;106591;1253;24220;-69
2023/03/14 08:56:18;;;;;;;9.30;6.20;;;;;;;8.13;55.99;94893.23;106609;1273;24262;-70
2023/03/14 08:58:47;;;;;;;11.20;5.50;;;;;;;8.18;55.96;94899.27;106437;1270;24364;-70
2023/03/14 09:01:16;;;;;;;7.90;5.40;;;;;;;8.19;55.27;94888.90;106546;1276;25208;-71
2023/03/14 09:03:45;;;;;;;9.10;5.60;;;;;;;8.22;55.52;94889.38;106758;1276;22518;-71
2023/03/14 09:06:17;;;;;;;9.40;6.00;;;;;;;8.28;55.64;94890.99;106820;1275;24251;-71
2023/03/14 09:08:45;;;;;;;10.10;5.00;;;;;;;8.34;55.39;94889.63;106795;1273;22524;-72
2023/03/14 09:11:14;;;;;;;7.70;5.50;;;;;;;8.41;55.19;94887.41;106508;1266;22518;-71
2023/03/14 09:13:43;;;;;;;6.80;5.20;;;;;;;8.48;55.14;94877.62;106562;1276;22772;-72
2023/03/14 09:16:11;;;;;;;13.70;5.80;;;;;;;8.54;54.75;94868.23;106686;1276;25549;-66
2023/03/14 09:18:39;;;;;;;7.70;5.50;;;;;;;8.60;54.78;94866.16;106605;1276;22525;-67
2023/03/14 09:21:07;;;;;;;7.70;4.70;;;;;;;8.68;55.17;94860.88;106703;1276;24486;-64
2023/03/14 09:23:35;;;;;;;9.40;5.70;;;;;;;8.76;54.47;94854.57;106636;1276;22523;-66
2023/03/14 09:26:04;;;;;;;12.20;7.30;;;;;;;8.79;53.36;94856.40;106829;1276;25471;-66
2023/03/14 09:28:32;;;;;;;12.60;6.90;;;;;;;8.85;53.44;94850.51;106785;1276;23150;-66
2023/03/14 09:31:08;;;;;;;12.80;7.70;;;;;;;8.95;53.87;94851.30;106851;1276;22551;-65
2023/03/14 09:33:37;;;;;;;15.90;7.60;;;;;;;9.02;52.55;94849.72;106616;1276;22606;-66
2023/03/14 09:36:07;;;;;;;10.00;6.00;;;;;;;9.07;52.84;94843.46;106587;1276;22607;-66
2023/03/14 09:38:35;;;;;;;18.90;8.00;;;;;;;9.11;52.00;94840.55;106720;1273;22527;-65
2023/03/14 09:41:32;;;;;;;16.30;9.30;;;;;;;9.17;51.93;94837.78;106590;1276;25401;-65
2023/03/14 09:44:11;;;;;;;12.40;7.70;;;;;;;9.25;51.12;94833.71;106587;1276;22654;-66
2023/03/14 09:46:43;;;;;;;17.00;10.20;;;;;;;9.28;50.69;94827.65;106842;1276;24250;-66
2023/03/14 09:49:33;;;;;;;19.10;11.30;;;;;;;9.37;50.86;94826.57;106624;1276;22633;-65
2023/03/14 09:52:10;;;;;;;32.90;23.30;;;;;;;9.49;51.68;94821.33;106541;1276;24683;-67
2023/03/14 09:54:50;;;;;;;32.20;10.70;;;;;;;9.61;51.34;94818.02;106582;1276;22520;-67
2023/03/14 09:57:21;;;;;;;24.80;17.60;;;;;;;9.74;51.17;94811.16;106585;1276;24376;-67
2023/03/14 09:59:53;;;;;;;23.90;14.90;;;;;;;9.81;49.97;94810.98;106560;1276;25545;-65
2023/03/14 10:02:24;;;;;;;22.10;16.00;;;;;;;9.91;50.76;94806.48;106528;1276;22533;-66
2023/03/14 10:04:54;;;;;;;12.70;8.90;;;;;;;10.02;49.92;94799.66;106617;1276;24177;-65
2023/03/14 10:07:32;;;;;;;9.30;5.00;;;;;;;10.15;50.81;94795.92;106635;1276;22644;-66
2023/03/14 10:10:01;;;;;;;7.90;5.20;;;;;;;10.28;51.19;94796.61;106631;1276;25217;-66
2023/03/14 10:12:34;;;;;;;9.40;5.40;;;;;;;10.40;51.23;94786.41;106539;1276;23884;-66
2023/03/14 10:15:14;;;;;;;18.80;11.70;;;;;;;10.52;50.22;94789.04;106591;1271;24644;-66
2023/03/14 10:17:47;;;;;;;11.50;5.80;;;;;;;10.59;49.36;94785.47;106617;1276;24219;-66
2023/03/14 10:20:34;;;;;;;11.20;5.50;;;;;;;10.69;49.48;94786.05;106541;1276;22551;-66
2023/03/14 10:23:27;;;;;;;15.40;11.20;;;;;;;10.77;48.84;94776.64;106568;1276;22529;-66
2023/03/14 10:26:16;;;;;;;13.50;6.30;;;;;;;10.82;48.72;94772.95;106626;1276;25500;-66
2023/03/14 10:28:51;;;;;;;20.20;9.10;;;;;;;10.91;48.98;94771.45;106576;1276;24308;-66
2023/03/14 10:31:46;;;;;;;12.20;5.60;;;;;;;11.01;49.64;94765.10;106086;1276;652341;-66
2023/03/14 10:34:18;;;;;;;9.40;5.70;;;;;;;11.08;48.91;94770.15;106590;1266;25271;-66
2023/03/14 10:36:46;;;;;;;12.60;7.10;;;;;;;11.13;49.70;94763.13;106617;1276;25336;-66
2023/03/14 10:39:17;;;;;;;16.20;10.40;;;;;;;11.18;49.55;94760.48;106558;1276;22524;-66
2023/03/14 10:41:52;;;;;;;16.00;10.60;;;;;;;11.21;49.18;94761.45;106557;1276;22516;-66
2023/03/14 10:44:25;;;;;;;10.60;6.70;;;;;;;11.19;48.82;94758.35;106611;1276;22524;-66
2023/03/14 10:47:00;;;;;;;11.00;7.00;;;;;;;11.18;48.64;94750.64;106646;1276;24186;-66
2023/03/14 10:49:37;;;;;;;9.60;7.30;;;;;;;11.16;48.43;94746.66;106629;1276;25391;-66
2023/03/14 10:52:08;;;;;;;14.00;11.50;;;;;;;11.17;49.00;94742.02;106605;1276;24350;-66
2023/03/14 10:54:37;;;;;;;42.70;36.20;;;;;;;11.22;49.34;94737.65;106627;1276;22769;-66
2023/03/14 10:57:08;;;;;;;11.40;7.80;;;;;;;11.26;49.08;94728.86;106580;1276;22541;-66
2023/03/14 10:59:41;;;;;;;9.10;6.50;;;;;;;11.30;48.72;94727.86;106522;1276;22524;-66
2023/03/14 11:02:40;;;;;;;18.40;10.70;;;;;;;11.35;49.42;94722.21;106552;1276;22791;-66
2023/03/14 11:05:08;;;;;;;20.50;13.10;;;;;;;11.40;49.58;94710.41;106632;1276;23906;-66
2023/03/14 11:07:42;;;;;;;10.80;7.60;;;;;;;11.44;48.79;94703.76;106592;1276;22524;-66
2023/03/14 11:10:10;;;;;;;;;;;;;;;11.48;49.62;94697.80;106661;1276;25370;-66
2023/03/14 11:13:01;;;;;;;7.20;4.80;;;;;;;11.52;49.29;94693.96;106637;1255;24241;-66
2023/03/14 11:15:35;;;;;;;7.50;4.80;;;;;;;11.60;49.60;94694.57;106642;1276;22528;-66
2023/03/14 11:18:41;;;;;;;13.00;7.00;;;;;;;11.65;49.54;94686.25;106713;1276;22517;-66
2023/03/14 11:21:46;;;;;;;42.50;7.60;;;;;;;11.72;49.59;94677.55;106888;1276;22588;-67
2023/03/14 11:24:42;;;;;;;10.60;5.90;;;;;;;11.76;47.84;94677.21;106698;1276;24377;-67
2023/03/14 11:27:27;;;;;;;13.10;5.70;;;;;;;11.78;48.88;94673.80;106656;1276;22742;-67
2023/03/14 11:30:04;;;;;;;8.50;5.20;;;;;;;11.81;48.73;94666.98;106593;1276;22535;-67
2023/03/14 11:32:49;;;;;;;11.50;6.30;;;;;;;11.81;46.83;94662.58;106611;1276;24490;-67
2023/03/14 11:35:30;;;;;;;16.70;7.70;;;;;;;11.74;46.69;94659.67;106605;1276;22749;-67
2023/03/14 11:38:37;;;;;;;12.60;8.90;;;;;;;11.78;48.13;94650.20;106629;1276;22613;-67
2023/03/14 11:41:13;;;;;;;11.60;7.50;;;;;;;11.81;48.32;94649.17;106586;1276;22563;-67
2023/03/14 11:43:48;;;;;;;14.40;7.80;;;;;;;11.82;48.32;94641.94;106575;1276;25316;-67
2023/03/14 11:46:23;;;;;;;14.20;8.80;;;;;;;11.83;48.51;94637.46;106588;1276;22526;-67
2023/03/14 11:48:54;;;;;;;12.80;7.60;;;;;;;11.86;48.76;94631.91;106649;1276;22524;-67
2023/03/14 11:51:28;;;;;;;13.70;7.80;;;;;;;11.90;48.79;94631.61;106581;1276;24365;-66
2023/03/14 11:54:14;;;;;;;14.00;9.10;;;;;;;11.94;48.57;94628.98;106635;1254;22562;-67